sensor_id;sensor_type;location;lat;lon;timestamp;P1;durP1;ratioP1;P2;durP2;ratioP2
11086;SDS011;5597;47.588;9.642;2022-09-01T00:02:11;19.73;;;17.83;;
11086;SDS011;5597;47.588;9.642;2022-09-01T00:04:40;17.83;;;16.03;;
11086;SDS011;5597;47.588;9.642;2022-09-01T00:07:09;18.20;;;16.50;;
11086;SDS011;5597;47.588;9.642;2022-09-01T00:09:36;18.30;;;16.50;;
11086;SDS011;5597;47.588;9.642;2022-09-01T00:12:03;17.23;;;15.53;;
11086;SDS011;5597;47.588;9.642;2022-09-01T00:14:31;15.50;;;14.10;;
11086;SDS011;5597;47.588;9.642;2022-09-01T00:16:59;17.67;;;15.77;;
11086;SDS011;5597;47.588;9.642;2022-09-01T00:19:28;20.33;;;18.43;;
11086;SDS011;5597;47.588;9.642;2022-09-01T00:21:54;19.77;;;17.70;;
11086;SDS011;5597;47.588;9.642;2022-09-01T00:24:20;19.07;;;17.17;;
11086;SDS011;5597;47.588;9.642;2022-09-01T00:26:47;20.67;;;18.70;;
11086;SDS011;5597;47.588;9.642;2022-09-01T00:29:13;18.83;;;16.97;;
11086;SDS011;5597;47.588;9.642;2022-09-01T00:31:39;19.17;;;17.27;;
11086;SDS011;5597;47.588;9.642;2022-09-01T00:34:06;18.40;;;16.60;;
11086;SDS011;5597;47.588;9.642;2022-09-01T00:36:32;19.90;;;17.97;;
11086;SDS011;5597;47.588;9.642;2022-09-01T00:38:58;18.63;;;16.83;;
11086;SDS011;5597;47.588;9.642;2022-09-01T00:41:24;19.00;;;17.10;;
11086;SDS011;5597;47.588;9.642;2022-09-01T00:43:54;19.03;;;17.20;;
11086;SDS011;5597;47.588;9.642;2022-09-01T00:46:25;19.07;;;17.20;;
11086;SDS011;5597;47.588;9.642;2022-09-01T00:48:58;19.00;;;17.00;;
11086;SDS011;5597;47.588;9.642;2022-09-01T00:51:28;17.73;;;16.03;;
11086;SDS011;5597;47.588;9.642;2022-09-01T00:53:57;17.90;;;16.10;;
11086;SDS011;5597;47.588;9.642;2022-09-01T00:56:24;16.80;;;15.17;;
11086;SDS011;5597;47.588;9.642;2022-09-01T00:58:50;18.77;;;16.97;;
11086;SDS011;5597;47.588;9.642;2022-09-01T01:01:17;17.37;;;15.27;;
11086;SDS011;5597;47.588;9.642;2022-09-01T01:03:43;17.90;;;16.20;;
11086;SDS011;5597;47.588;9.642;2022-09-01T01:06:11;15.80;;;14.30;;
11086;SDS011;5597;47.588;9.642;2022-09-01T01:08:43;17.30;;;15.63;;
11086;SDS011;5597;47.588;9.642;2022-09-01T01:11:20;16.10;;;14.60;;
11086;SDS011;5597;47.588;9.642;2022-09-01T01:13:57;15.40;;;13.67;;
11086;SDS011;5597;47.588;9.642;2022-09-01T01:16:37;15.80;;;14.30;;
11086;SDS011;5597;47.588;9.642;2022-09-01T01:19:26;16.43;;;14.73;;
11086;SDS011;5597;47.588;9.642;2022-09-01T01:23:19;15.67;;;14.17;;
11086;SDS011;5597;47.588;9.642;2022-09-01T01:25:32;15.57;;;13.80;;
11086;SDS011;5597;47.588;9.642;2022-09-01T01:28:08;14.80;;;13.40;;
11086;SDS011;5597;47.588;9.642;2022-09-01T01:30:39;16.03;;;14.53;;
11086;SDS011;5597;47.588;9.642;2022-09-01T01:33:07;15.27;;;13.67;;
11086;SDS011;5597;47.588;9.642;2022-09-01T01:35:33;15.03;;;13.43;;
11086;SDS011;5597;47.588;9.642;2022-09-01T01:37:59;14.07;;;12.30;;
11086;SDS011;5597;47.588;9.642;2022-09-01T01:40:26;14.50;;;13.10;;
11086;SDS011;5597;47.588;9.642;2022-09-01T01:42:53;13.20;;;11.90;;
11086;SDS011;5597;47.588;9.642;2022-09-01T01:45:20;10.53;;;9.53;;
11086;SDS011;5597;47.588;9.642;2022-09-01T01:47:49;9.20;;;8.30;;
11086;SDS011;5597;47.588;9.642;2022-09-01T01:50:18;8.80;;;8.00;;
11086;SDS011;5597;47.588;9.642;2022-09-01T01:52:57;8.67;;;7.87;;
11086;SDS011;5597;47.588;9.642;2022-09-01T01:55:24;7.60;;;6.90;;
11086;SDS011;5597;47.588;9.642;2022-09-01T01:57:51;7.37;;;6.67;;
11086;SDS011;5597;47.588;9.642;2022-09-01T02:00:19;7.43;;;6.73;;
11086;SDS011;5597;47.588;9.642;2022-09-01T02:02:47;7.37;;;6.70;;
11086;SDS011;5597;47.588;9.642;2022-09-01T02:05:21;6.97;;;6.37;;
11086;SDS011;5597;47.588;9.642;2022-09-01T02:07:50;7.47;;;6.80;;
11086;SDS011;5597;47.588;9.642;2022-09-01T02:10:24;8.17;;;7.43;;
11086;SDS011;5597;47.588;9.642;2022-09-01T02:12:51;7.77;;;7.07;;
11086;SDS011;5597;47.588;9.642;2022-09-01T02:15:18;8.40;;;7.60;;
11086;SDS011;5597;47.588;9.642;2022-09-01T02:17:44;6.83;;;6.23;;
11086;SDS011;5597;47.588;9.642;2022-09-01T02:20:11;6.67;;;6.10;;
11086;SDS011;5597;47.588;9.642;2022-09-01T02:22:39;7.07;;;6.37;;
11086;SDS011;5597;47.588;9.642;2022-09-01T02:25:08;7.20;;;6.60;;
11086;SDS011;5597;47.588;9.642;2022-09-01T02:27:34;7.13;;;6.53;;
11086;SDS011;5597;47.588;9.642;2022-09-01T02:30:03;8.13;;;7.33;;
11086;SDS011;5597;47.588;9.642;2022-09-01T02:32:34;8.40;;;7.70;;
11086;SDS011;5597;47.588;9.642;2022-09-01T02:35:00;8.30;;;7.60;;
11086;SDS011;5597;47.588;9.642;2022-09-01T02:37:25;8.93;;;8.13;;
11086;SDS011;5597;47.588;9.642;2022-09-01T02:39:51;9.53;;;8.63;;
11086;SDS011;5597;47.588;9.642;2022-09-01T02:42:18;11.43;;;10.37;;
11086;SDS011;5597;47.588;9.642;2022-09-01T02:44:52;10.77;;;9.77;;
11086;SDS011;5597;47.588;9.642;2022-09-01T02:47:19;12.90;;;9.63;;
11086;SDS011;5597;47.588;9.642;2022-09-01T02:49:47;9.67;;;8.73;;
11086;SDS011;5597;47.588;9.642;2022-09-01T02:52:16;8.50;;;7.70;;
11086;SDS011;5597;47.588;9.642;2022-09-01T02:54:44;8.57;;;7.83;;
11086;SDS011;5597;47.588;9.642;2022-09-01T02:57:14;9.40;;;8.60;;
11086;SDS011;5597;47.588;9.642;2022-09-01T02:59:41;9.77;;;8.87;;
11086;SDS011;5597;47.588;9.642;2022-09-01T03:02:07;9.83;;;8.93;;
11086;SDS011;5597;47.588;9.642;2022-09-01T03:04:33;9.27;;;8.37;;
11086;SDS011;5597;47.588;9.642;2022-09-01T03:07:03;9.00;;;8.20;;
11086;SDS011;5597;47.588;9.642;2022-09-01T03:09:29;8.67;;;7.87;;
11086;SDS011;5597;47.588;9.642;2022-09-01T03:11:56;8.00;;;7.30;;
11086;SDS011;5597;47.588;9.642;2022-09-01T03:14:22;8.13;;;7.37;;
11086;SDS011;5597;47.588;9.642;2022-09-01T03:16:48;8.77;;;8.00;;
11086;SDS011;5597;47.588;9.642;2022-09-01T03:19:14;9.17;;;8.27;;
11086;SDS011;5597;47.588;9.642;2022-09-01T03:21:41;9.47;;;8.67;;
11086;SDS011;5597;47.588;9.642;2022-09-01T03:24:09;9.20;;;8.33;;
11086;SDS011;5597;47.588;9.642;2022-09-01T03:26:39;10.13;;;9.23;;
11086;SDS011;5597;47.588;9.642;2022-09-01T03:29:06;11.53;;;10.47;;
11086;SDS011;5597;47.588;9.642;2022-09-01T03:31:33;12.47;;;11.37;;
11086;SDS011;5597;47.588;9.642;2022-09-01T03:34:00;11.97;;;10.87;;
11086;SDS011;5597;47.588;9.642;2022-09-01T03:36:27;12.97;;;11.70;;
11086;SDS011;5597;47.588;9.642;2022-09-01T03:38:54;10.73;;;9.73;;
11086;SDS011;5597;47.588;9.642;2022-09-01T03:41:21;10.97;;;9.97;;
11086;SDS011;5597;47.588;9.642;2022-09-01T03:43:49;11.77;;;10.60;;
11086;SDS011;5597;47.588;9.642;2022-09-01T03:46:15;9.37;;;8.47;;
11086;SDS011;5597;47.588;9.642;2022-09-01T03:48:49;9.63;;;8.73;;
11086;SDS011;5597;47.588;9.642;2022-09-01T03:51:17;9.60;;;8.70;;
11086;SDS011;5597;47.588;9.642;2022-09-01T03:53:46;9.43;;;8.53;;
11086;SDS011;5597;47.588;9.642;2022-09-01T03:56:13;8.67;;;7.87;;
11086;SDS011;5597;47.588;9.642;2022-09-01T03:58:41;12.03;;;10.87;;
11086;SDS011;5597;47.588;9.642;2022-09-01T04:01:11;14.63;;;13.13;;
11086;SDS011;5597;47.588;9.642;2022-09-01T04:03:37;15.13;;;13.63;;
11086;SDS011;5597;47.588;9.642;2022-09-01T04:06:06;14.57;;;13.07;;
11086;SDS011;5597;47.588;9.642;2022-09-01T04:08:34;12.43;;;11.23;;
11086;SDS011;5597;47.588;9.642;2022-09-01T04:11:01;11.73;;;10.63;;
11086;SDS011;5597;47.588;9.642;2022-09-01T04:13:30;10.90;;;9.80;;
11086;SDS011;5597;47.588;9.642;2022-09-01T04:16:00;11.00;;;9.97;;
11086;SDS011;5597;47.588;9.642;2022-09-01T04:18:26;11.67;;;10.53;;
11086;SDS011;5597;47.588;9.642;2022-09-01T04:20:54;9.87;;;8.97;;
11086;SDS011;5597;47.588;9.642;2022-09-01T04:23:25;11.13;;;10.03;;
11086;SDS011;5597;47.588;9.642;2022-09-01T04:25:57;14.57;;;13.07;;
11086;SDS011;5597;47.588;9.642;2022-09-01T04:28:33;14.27;;;12.87;;
11086;SDS011;5597;47.588;9.642;2022-09-01T04:31:04;15.30;;;13.73;;
11086;SDS011;5597;47.588;9.642;2022-09-01T04:33:39;16.87;;;15.17;;
11086;SDS011;5597;47.588;9.642;2022-09-01T04:36:06;16.10;;;14.43;;
11086;SDS011;5597;47.588;9.642;2022-09-01T04:38:44;15.20;;;13.70;;
11086;SDS011;5597;47.588;9.642;2022-09-01T04:41:11;13.70;;;12.40;;
11086;SDS011;5597;47.588;9.642;2022-09-01T04:43:44;15.03;;;13.60;;
11086;SDS011;5597;47.588;9.642;2022-09-01T04:46:11;15.40;;;13.90;;
11086;SDS011;5597;47.588;9.642;2022-09-01T04:48:38;13.93;;;12.60;;
11086;SDS011;5597;47.588;9.642;2022-09-01T04:51:07;15.27;;;13.67;;
11086;SDS011;5597;47.588;9.642;2022-09-01T04:53:35;15.87;;;14.27;;
11086;SDS011;5597;47.588;9.642;2022-09-01T04:56:02;15.33;;;13.80;;
11086;SDS011;5597;47.588;9.642;2022-09-01T04:58:29;16.00;;;14.40;;
11086;SDS011;5597;47.588;9.642;2022-09-01T05:00:54;17.87;;;16.07;;
11086;SDS011;5597;47.588;9.642;2022-09-01T05:03:20;17.80;;;15.90;;
11086;SDS011;5597;47.588;9.642;2022-09-01T05:05:47;15.90;;;14.30;;
11086;SDS011;5597;47.588;9.642;2022-09-01T05:08:17;16.07;;;14.37;;
11086;SDS011;5597;47.588;9.642;2022-09-01T05:10:48;16.47;;;14.87;;
11086;SDS011;5597;47.588;9.642;2022-09-01T05:13:16;15.67;;;14.07;;
11086;SDS011;5597;47.588;9.642;2022-09-01T05:15:43;16.77;;;15.13;;
11086;SDS011;5597;47.588;9.642;2022-09-01T05:18:17;17.70;;;15.90;;
11086;SDS011;5597;47.588;9.642;2022-09-01T05:20:51;15.97;;;14.30;;
11086;SDS011;5597;47.588;9.642;2022-09-01T05:23:18;16.87;;;15.17;;
11086;SDS011;5597;47.588;9.642;2022-09-01T05:25:45;17.80;;;15.97;;
11086;SDS011;5597;47.588;9.642;2022-09-01T05:28:14;15.73;;;14.23;;
11086;SDS011;5597;47.588;9.642;2022-09-01T05:30:42;17.67;;;15.83;;
11086;SDS011;5597;47.588;9.642;2022-09-01T05:33:10;16.13;;;14.43;;
11086;SDS011;5597;47.588;9.642;2022-09-01T05:35:39;16.07;;;14.47;;
11086;SDS011;5597;47.588;9.642;2022-09-01T05:38:07;15.47;;;13.97;;
11086;SDS011;5597;47.588;9.642;2022-09-01T05:40:37;13.13;;;11.83;;
11086;SDS011;5597;47.588;9.642;2022-09-01T05:43:05;14.27;;;12.77;;
11086;SDS011;5597;47.588;9.642;2022-09-01T05:45:37;16.93;;;15.20;;
11086;SDS011;5597;47.588;9.642;2022-09-01T05:48:05;16.57;;;14.73;;
11086;SDS011;5597;47.588;9.642;2022-09-01T05:50:33;14.57;;;13.17;;
11086;SDS011;5597;47.588;9.642;2022-09-01T05:52:59;15.37;;;13.87;;
11086;SDS011;5597;47.588;9.642;2022-09-01T05:55:24;17.37;;;15.10;;
11086;SDS011;5597;47.588;9.642;2022-09-01T05:57:51;15.93;;;14.33;;
11086;SDS011;5597;47.588;9.642;2022-09-01T06:00:18;14.03;;;12.73;;
11086;SDS011;5597;47.588;9.642;2022-09-01T06:02:44;14.53;;;13.03;;
11086;SDS011;5597;47.588;9.642;2022-09-01T06:05:11;15.27;;;13.83;;
11086;SDS011;5597;47.588;9.642;2022-09-01T06:07:39;14.77;;;13.37;;
11086;SDS011;5597;47.588;9.642;2022-09-01T06:10:06;14.53;;;13.13;;
11086;SDS011;5597;47.588;9.642;2022-09-01T06:12:33;14.27;;;12.97;;
11086;SDS011;5597;47.588;9.642;2022-09-01T06:14:59;15.30;;;13.80;;
11086;SDS011;5597;47.588;9.642;2022-09-01T06:17:25;14.80;;;13.27;;
11086;SDS011;5597;47.588;9.642;2022-09-01T06:19:52;12.17;;;11.00;;
11086;SDS011;5597;47.588;9.642;2022-09-01T06:22:22;13.07;;;11.83;;
11086;SDS011;5597;47.588;9.642;2022-09-01T06:24:50;13.97;;;12.57;;
11086;SDS011;5597;47.588;9.642;2022-09-01T06:27:18;12.10;;;10.83;;
11086;SDS011;5597;47.588;9.642;2022-09-01T06:29:44;12.40;;;11.10;;
11086;SDS011;5597;47.588;9.642;2022-09-01T06:32:13;11.60;;;10.50;;
11086;SDS011;5597;47.588;9.642;2022-09-01T06:34:39;13.03;;;11.83;;
11086;SDS011;5597;47.588;9.642;2022-09-01T06:37:06;13.80;;;12.43;;
11086;SDS011;5597;47.588;9.642;2022-09-01T06:39:32;12.67;;;11.30;;
11086;SDS011;5597;47.588;9.642;2022-09-01T06:41:58;12.33;;;10.97;;
11086;SDS011;5597;47.588;9.642;2022-09-01T06:44:26;11.57;;;10.47;;
11086;SDS011;5597;47.588;9.642;2022-09-01T06:46:54;11.87;;;10.77;;
11086;SDS011;5597;47.588;9.642;2022-09-01T06:49:20;11.63;;;10.53;;
11086;SDS011;5597;47.588;9.642;2022-09-01T06:51:56;12.00;;;10.77;;
11086;SDS011;5597;47.588;9.642;2022-09-01T06:54:23;12.73;;;11.33;;
11086;SDS011;5597;47.588;9.642;2022-09-01T06:56:49;11.63;;;10.53;;
11086;SDS011;5597;47.588;9.642;2022-09-01T06:59:16;11.50;;;10.37;;
11086;SDS011;5597;47.588;9.642;2022-09-01T07:01:42;11.80;;;10.70;;
11086;SDS011;5597;47.588;9.642;2022-09-01T07:04:07;11.87;;;10.67;;
11086;SDS011;5597;47.588;9.642;2022-09-01T07:06:34;12.07;;;10.97;;
11086;SDS011;5597;47.588;9.642;2022-09-01T07:09:01;11.23;;;10.13;;
11086;SDS011;5597;47.588;9.642;2022-09-01T07:11:28;10.90;;;9.90;;
11086;SDS011;5597;47.588;9.642;2022-09-01T07:13:58;11.03;;;10.00;;
11086;SDS011;5597;47.588;9.642;2022-09-01T07:16:26;10.80;;;9.80;;
11086;SDS011;5597;47.588;9.642;2022-09-01T07:18:54;12.03;;;10.20;;
11086;SDS011;5597;47.588;9.642;2022-09-01T07:21:22;10.93;;;9.93;;
11086;SDS011;5597;47.588;9.642;2022-09-01T07:23:48;11.50;;;10.40;;
11086;SDS011;5597;47.588;9.642;2022-09-01T07:26:15;10.73;;;9.63;;
11086;SDS011;5597;47.588;9.642;2022-09-01T07:28:46;10.43;;;9.53;;
11086;SDS011;5597;47.588;9.642;2022-09-01T07:31:22;9.23;;;8.43;;
11086;SDS011;5597;47.588;9.642;2022-09-01T07:33:53;9.03;;;8.13;;
11086;SDS011;5597;47.588;9.642;2022-09-01T07:36:20;9.97;;;8.97;;
11086;SDS011;5597;47.588;9.642;2022-09-01T07:38:45;8.67;;;7.87;;
11086;SDS011;5597;47.588;9.642;2022-09-01T07:41:18;8.43;;;7.70;;
11086;SDS011;5597;47.588;9.642;2022-09-01T07:43:44;8.10;;;7.30;;
11086;SDS011;5597;47.588;9.642;2022-09-01T07:46:10;7.07;;;6.47;;
11086;SDS011;5597;47.588;9.642;2022-09-01T07:48:37;9.43;;;8.50;;
11086;SDS011;5597;47.588;9.642;2022-09-01T07:51:03;8.40;;;7.60;;
11086;SDS011;5597;47.588;9.642;2022-09-01T07:53:32;7.77;;;7.07;;
11086;SDS011;5597;47.588;9.642;2022-09-01T07:56:03;8.17;;;7.47;;
11086;SDS011;5597;47.588;9.642;2022-09-01T07:58:34;7.37;;;6.77;;
11086;SDS011;5597;47.588;9.642;2022-09-01T08:01:08;7.40;;;6.63;;
11086;SDS011;5597;47.588;9.642;2022-09-01T08:03:36;7.47;;;6.53;;
11086;SDS011;5597;47.588;9.642;2022-09-01T08:06:06;6.57;;;5.97;;
11086;SDS011;5597;47.588;9.642;2022-09-01T08:08:34;5.70;;;5.20;;
11086;SDS011;5597;47.588;9.642;2022-09-01T08:11:01;6.10;;;5.60;;
11086;SDS011;5597;47.588;9.642;2022-09-01T08:13:27;5.83;;;5.23;;
11086;SDS011;5597;47.588;9.642;2022-09-01T08:15:53;4.87;;;4.47;;
11086;SDS011;5597;47.588;9.642;2022-09-01T08:18:19;5.07;;;4.57;;
11086;SDS011;5597;47.588;9.642;2022-09-01T08:20:45;4.90;;;4.30;;
11086;SDS011;5597;47.588;9.642;2022-09-01T08:23:15;4.13;;;3.83;;
11086;SDS011;5597;47.588;9.642;2022-09-01T08:25:42;4.13;;;3.70;;
11086;SDS011;5597;47.588;9.642;2022-09-01T08:28:09;4.00;;;3.70;;
11086;SDS011;5597;47.588;9.642;2022-09-01T08:30:41;4.40;;;3.77;;
11086;SDS011;5597;47.588;9.642;2022-09-01T08:33:08;4.17;;;3.87;;
11086;SDS011;5597;47.588;9.642;2022-09-01T08:35:39;3.93;;;3.47;;
11086;SDS011;5597;47.588;9.642;2022-09-01T08:38:07;4.07;;;3.77;;
11086;SDS011;5597;47.588;9.642;2022-09-01T08:40:33;3.70;;;3.40;;
11086;SDS011;5597;47.588;9.642;2022-09-01T08:43:05;4.27;;;3.87;;
11086;SDS011;5597;47.588;9.642;2022-09-01T08:45:45;3.87;;;3.57;;
11086;SDS011;5597;47.588;9.642;2022-09-01T08:48:21;3.60;;;3.30;;
11086;SDS011;5597;47.588;9.642;2022-09-01T08:50:58;3.83;;;3.53;;
11086;SDS011;5597;47.588;9.642;2022-09-01T08:53:35;3.40;;;3.10;;
11086;SDS011;5597;47.588;9.642;2022-09-01T08:56:13;3.97;;;3.50;;
11086;SDS011;5597;47.588;9.642;2022-09-01T08:58:42;3.60;;;3.30;;
11086;SDS011;5597;47.588;9.642;2022-09-01T09:01:10;3.80;;;3.50;;
11086;SDS011;5597;47.588;9.642;2022-09-01T09:03:50;3.47;;;3.17;;
11086;SDS011;5597;47.588;9.642;2022-09-01T09:06:28;2.90;;;2.60;;
11086;SDS011;5597;47.588;9.642;2022-09-01T09:09:10;3.40;;;3.10;;
11086;SDS011;5597;47.588;9.642;2022-09-01T09:14:27;2.90;;;2.70;;
11086;SDS011;5597;47.588;9.642;2022-09-01T09:16:59;3.60;;;3.30;;
11086;SDS011;5597;47.588;9.642;2022-09-01T09:19:29;3.20;;;3.00;;
11086;SDS011;5597;47.588;9.642;2022-09-01T09:21:59;3.47;;;3.17;;
11086;SDS011;5597;47.588;9.642;2022-09-01T09:24:29;3.33;;;3.03;;
11086;SDS011;5597;47.588;9.642;2022-09-01T09:27:54;3.43;;;3.13;;
11086;SDS011;5597;47.588;9.642;2022-09-01T09:30:03;3.20;;;2.93;;
11086;SDS011;5597;47.588;9.642;2022-09-01T09:37:50;2.90;;;2.70;;
11086;SDS011;5597;47.588;9.642;2022-09-01T09:40:19;3.37;;;3.07;;
11086;SDS011;5597;47.588;9.642;2022-09-01T09:47:50;2.83;;;2.63;;
11086;SDS011;5597;47.588;9.642;2022-09-01T09:52:43;3.37;;;3.10;;
11086;SDS011;5597;47.588;9.642;2022-09-01T09:55:19;3.47;;;3.17;;
11086;SDS011;5597;47.588;9.642;2022-09-01T09:57:57;3.23;;;3.03;;
11086;SDS011;5597;47.588;9.642;2022-09-01T10:00:28;4.57;;;3.40;;
11086;SDS011;5597;47.588;9.642;2022-09-01T10:03:05;3.10;;;2.90;;
11086;SDS011;5597;47.588;9.642;2022-09-01T10:05:38;3.30;;;3.03;;
11086;SDS011;5597;47.588;9.642;2022-09-01T10:08:05;3.17;;;2.97;;
11086;SDS011;5597;47.588;9.642;2022-09-01T10:10:43;2.60;;;2.40;;
11086;SDS011;5597;47.588;9.642;2022-09-01T10:13:15;3.50;;;3.20;;
11086;SDS011;5597;47.588;9.642;2022-09-01T10:15:49;3.40;;;3.10;;
11086;SDS011;5597;47.588;9.642;2022-09-01T10:18:19;3.83;;;3.20;;
11086;SDS011;5597;47.588;9.642;2022-09-01T10:20:57;3.50;;;3.20;;
11086;SDS011;5597;47.588;9.642;2022-09-01T10:23:24;3.07;;;2.80;;
11086;SDS011;5597;47.588;9.642;2022-09-01T10:25:53;3.00;;;2.80;;
11086;SDS011;5597;47.588;9.642;2022-09-01T10:28:27;3.13;;;2.83;;
11086;SDS011;5597;47.588;9.642;2022-09-01T10:30:55;3.47;;;3.00;;
11086;SDS011;5597;47.588;9.642;2022-09-01T10:33:23;3.40;;;3.10;;
11086;SDS011;5597;47.588;9.642;2022-09-01T10:35:50;3.23;;;2.93;;
11086;SDS011;5597;47.588;9.642;2022-09-01T10:38:21;3.53;;;3.23;;
11086;SDS011;5597;47.588;9.642;2022-09-01T10:40:50;3.13;;;2.87;;
11086;SDS011;5597;47.588;9.642;2022-09-01T10:45:57;3.50;;;3.20;;
11086;SDS011;5597;47.588;9.642;2022-09-01T10:50:49;3.43;;;3.13;;
11086;SDS011;5597;47.588;9.642;2022-09-01T10:53:51;2.90;;;2.70;;
11086;SDS011;5597;47.588;9.642;2022-09-01T10:59:09;3.10;;;2.90;;
11086;SDS011;5597;47.588;9.642;2022-09-01T11:04:05;2.70;;;2.50;;
11086;SDS011;5597;47.588;9.642;2022-09-01T11:07:01;3.37;;;3.10;;
11086;SDS011;5597;47.588;9.642;2022-09-01T11:14:50;3.20;;;2.90;;
11086;SDS011;5597;47.588;9.642;2022-09-01T11:17:22;4.90;;;3.40;;
11086;SDS011;5597;47.588;9.642;2022-09-01T11:19:57;2.83;;;2.63;;
11086;SDS011;5597;47.588;9.642;2022-09-01T11:22:39;2.67;;;2.47;;
11086;SDS011;5597;47.588;9.642;2022-09-01T11:28:08;2.93;;;2.73;;
11086;SDS011;5597;47.588;9.642;2022-09-01T11:36:12;2.70;;;2.50;;
11086;SDS011;5597;47.588;9.642;2022-09-01T11:38:44;2.50;;;2.30;;
11086;SDS011;5597;47.588;9.642;2022-09-01T11:44:17;3.17;;;2.87;;
11086;SDS011;5597;47.588;9.642;2022-09-01T11:46:50;2.83;;;2.63;;
11086;SDS011;5597;47.588;9.642;2022-09-01T11:51:55;3.43;;;3.13;;
11086;SDS011;5597;47.588;9.642;2022-09-01T11:54:24;2.90;;;2.70;;
11086;SDS011;5597;47.588;9.642;2022-09-01T11:56:50;3.40;;;3.10;;
11086;SDS011;5597;47.588;9.642;2022-09-01T11:59:35;3.00;;;2.70;;
11086;SDS011;5597;47.588;9.642;2022-09-01T12:02:02;2.67;;;2.47;;
11086;SDS011;5597;47.588;9.642;2022-09-01T12:04:30;3.33;;;2.70;;
11086;SDS011;5597;47.588;9.642;2022-09-01T12:07:10;2.63;;;2.43;;
11086;SDS011;5597;47.588;9.642;2022-09-01T12:09:47;2.07;;;1.90;;
11086;SDS011;5597;47.588;9.642;2022-09-01T12:15:16;1.70;;;1.60;;
11086;SDS011;5597;47.588;9.642;2022-09-01T12:17:42;2.27;;;2.07;;
11086;SDS011;5597;47.588;9.642;2022-09-01T12:22:53;3.37;;;2.27;;
11086;SDS011;5597;47.588;9.642;2022-09-01T12:27:47;2.40;;;2.20;;
11086;SDS011;5597;47.588;9.642;2022-09-01T12:30:13;2.83;;;2.63;;
11086;SDS011;5597;47.588;9.642;2022-09-01T12:32:38;2.80;;;2.53;;
11086;SDS011;5597;47.588;9.642;2022-09-01T12:35:04;2.67;;;2.40;;
11086;SDS011;5597;47.588;9.642;2022-09-01T12:37:45;2.50;;;2.30;;
11086;SDS011;5597;47.588;9.642;2022-09-01T12:40:22;2.93;;;2.53;;
11086;SDS011;5597;47.588;9.642;2022-09-01T12:43:06;2.63;;;2.43;;
11086;SDS011;5597;47.588;9.642;2022-09-01T12:45:39;2.27;;;2.17;;
11086;SDS011;5597;47.588;9.642;2022-09-01T12:48:22;2.40;;;2.20;;
11086;SDS011;5597;47.588;9.642;2022-09-01T12:51:05;2.70;;;2.17;;
11086;SDS011;5597;47.588;9.642;2022-09-01T12:53:50;2.33;;;2.23;;
11086;SDS011;5597;47.588;9.642;2022-09-01T12:56:19;2.73;;;2.20;;
11086;SDS011;5597;47.588;9.642;2022-09-01T12:59:09;2.83;;;2.10;;
11086;SDS011;5597;47.588;9.642;2022-09-01T13:01:38;2.50;;;2.30;;
11086;SDS011;5597;47.588;9.642;2022-09-01T13:04:22;2.50;;;2.30;;
11086;SDS011;5597;47.588;9.642;2022-09-01T13:06:52;2.10;;;2.00;;
11086;SDS011;5597;47.588;9.642;2022-09-01T13:09:20;2.67;;;2.30;;
11086;SDS011;5597;47.588;9.642;2022-09-01T13:11:46;2.10;;;1.90;;
11086;SDS011;5597;47.588;9.642;2022-09-01T13:14:14;2.30;;;2.10;;
11086;SDS011;5597;47.588;9.642;2022-09-01T13:16:40;2.30;;;2.20;;
11086;SDS011;5597;47.588;9.642;2022-09-01T13:19:06;3.03;;;2.30;;
11086;SDS011;5597;47.588;9.642;2022-09-01T13:21:33;2.83;;;2.33;;
11086;SDS011;5597;47.588;9.642;2022-09-01T13:24:00;2.50;;;2.30;;
11086;SDS011;5597;47.588;9.642;2022-09-01T13:26:30;2.40;;;2.20;;
11086;SDS011;5597;47.588;9.642;2022-09-01T13:28:57;2.40;;;2.20;;
11086;SDS011;5597;47.588;9.642;2022-09-01T13:31:23;2.50;;;2.30;;
11086;SDS011;5597;47.588;9.642;2022-09-01T13:33:49;2.20;;;2.00;;
11086;SDS011;5597;47.588;9.642;2022-09-01T13:36:15;2.43;;;2.23;;
11086;SDS011;5597;47.588;9.642;2022-09-01T13:38:40;2.20;;;2.10;;
11086;SDS011;5597;47.588;9.642;2022-09-01T13:41:06;2.20;;;2.00;;
11086;SDS011;5597;47.588;9.642;2022-09-01T13:43:33;1.90;;;1.80;;
11086;SDS011;5597;47.588;9.642;2022-09-01T13:45:58;2.30;;;2.07;;
11086;SDS011;5597;47.588;9.642;2022-09-01T13:48:24;2.00;;;1.90;;
11086;SDS011;5597;47.588;9.642;2022-09-01T13:50:52;2.37;;;2.20;;
11086;SDS011;5597;47.588;9.642;2022-09-01T13:53:18;2.33;;;2.07;;
11086;SDS011;5597;47.588;9.642;2022-09-01T13:55:44;1.77;;;1.67;;
11086;SDS011;5597;47.588;9.642;2022-09-01T13:58:09;2.30;;;2.10;;
11086;SDS011;5597;47.588;9.642;2022-09-01T14:00:37;2.47;;;1.97;;
11086;SDS011;5597;47.588;9.642;2022-09-01T14:03:07;2.20;;;2.00;;
11086;SDS011;5597;47.588;9.642;2022-09-01T14:05:38;2.07;;;1.93;;
11086;SDS011;5597;47.588;9.642;2022-09-01T14:08:07;2.53;;;1.90;;
11086;SDS011;5597;47.588;9.642;2022-09-01T14:10:44;2.00;;;1.90;;
11086;SDS011;5597;47.588;9.642;2022-09-01T14:13:13;2.13;;;2.03;;
11086;SDS011;5597;47.588;9.642;2022-09-01T14:15:39;1.80;;;1.70;;
11086;SDS011;5597;47.588;9.642;2022-09-01T14:18:05;2.80;;;1.90;;
11086;SDS011;5597;47.588;9.642;2022-09-01T14:20:33;2.00;;;1.80;;
11086;SDS011;5597;47.588;9.642;2022-09-01T14:23:00;1.70;;;1.60;;
11086;SDS011;5597;47.588;9.642;2022-09-01T14:25:28;2.10;;;1.90;;
11086;SDS011;5597;47.588;9.642;2022-09-01T14:27:55;2.47;;;1.80;;
11086;SDS011;5597;47.588;9.642;2022-09-01T14:30:22;2.10;;;1.90;;
11086;SDS011;5597;47.588;9.642;2022-09-01T14:32:49;1.90;;;1.80;;
11086;SDS011;5597;47.588;9.642;2022-09-01T14:35:16;2.30;;;2.20;;
11086;SDS011;5597;47.588;9.642;2022-09-01T14:37:43;2.23;;;2.03;;
11086;SDS011;5597;47.588;9.642;2022-09-01T14:40:10;2.20;;;2.00;;
11086;SDS011;5597;47.588;9.642;2022-09-01T14:42:39;2.23;;;2.03;;
11086;SDS011;5597;47.588;9.642;2022-09-01T14:45:14;1.90;;;1.80;;
11086;SDS011;5597;47.588;9.642;2022-09-01T14:47:45;3.37;;;2.20;;
11086;SDS011;5597;47.588;9.642;2022-09-01T14:50:12;1.97;;;1.87;;
11086;SDS011;5597;47.588;9.642;2022-09-01T14:52:38;2.20;;;2.10;;
11086;SDS011;5597;47.588;9.642;2022-09-01T14:55:04;2.37;;;1.90;;
11086;SDS011;5597;47.588;9.642;2022-09-01T14:57:30;2.30;;;2.10;;
11086;SDS011;5597;47.588;9.642;2022-09-01T14:59:59;2.93;;;2.07;;
11086;SDS011;5597;47.588;9.642;2022-09-01T15:02:24;2.17;;;2.00;;
11086;SDS011;5597;47.588;9.642;2022-09-01T15:04:53;2.27;;;2.07;;
11086;SDS011;5597;47.588;9.642;2022-09-01T15:07:19;2.23;;;1.90;;
11086;SDS011;5597;47.588;9.642;2022-09-01T15:09:45;2.10;;;1.90;;
11086;SDS011;5597;47.588;9.642;2022-09-01T15:12:11;2.50;;;2.27;;
11086;SDS011;5597;47.588;9.642;2022-09-01T15:14:36;2.90;;;2.30;;
11086;SDS011;5597;47.588;9.642;2022-09-01T15:17:02;2.47;;;1.90;;
11086;SDS011;5597;47.588;9.642;2022-09-01T15:19:28;2.43;;;2.23;;
11086;SDS011;5597;47.588;9.642;2022-09-01T15:21:53;2.60;;;2.13;;
11086;SDS011;5597;47.588;9.642;2022-09-01T15:24:20;2.20;;;2.10;;
11086;SDS011;5597;47.588;9.642;2022-09-01T15:26:47;2.20;;;2.00;;
11086;SDS011;5597;47.588;9.642;2022-09-01T15:29:13;2.10;;;2.00;;
11086;SDS011;5597;47.588;9.642;2022-09-01T15:31:39;2.33;;;2.13;;
11086;SDS011;5597;47.588;9.642;2022-09-01T15:34:06;2.70;;;2.50;;
11086;SDS011;5597;47.588;9.642;2022-09-01T15:36:33;2.40;;;2.20;;
11086;SDS011;5597;47.588;9.642;2022-09-01T15:39:00;2.37;;;2.17;;
11086;SDS011;5597;47.588;9.642;2022-09-01T15:41:27;3.00;;;2.10;;
11086;SDS011;5597;47.588;9.642;2022-09-01T15:43:55;2.67;;;2.40;;
11086;SDS011;5597;47.588;9.642;2022-09-01T15:46:21;2.50;;;2.30;;
11086;SDS011;5597;47.588;9.642;2022-09-01T15:48:54;2.50;;;2.30;;
11086;SDS011;5597;47.588;9.642;2022-09-01T15:53:45;2.50;;;2.30;;
11086;SDS011;5597;47.588;9.642;2022-09-01T15:56:12;3.53;;;2.53;;
11086;SDS011;5597;47.588;9.642;2022-09-01T15:58:38;3.63;;;2.60;;
11086;SDS011;5597;47.588;9.642;2022-09-01T16:01:05;3.10;;;2.80;;